Ana Sayfa
METAR-TAF:

METAR-TAF

Havaalanları :

Hobart, Oklahoma, Amerika Birleşik Devletleri

Enlem: 34-59-22N, Boylam: 099-03-09W, yükseklik: 476 m

Güncel hava durumu gözlemi

Rapor saat 11:53 UTC de 15 dakika önce yapıldı.
Rüzgar güneydoğudan 10 kt
Sıcaklık 24°C
Nem 74%
Basınç 1011 hPa
Görüş mesafesi: 16.1 km
2400 ft yükseklikte parçalı çok bulutlu
civarda gök gürültülü fırtına

METAR: KHBR 161153Z AUTO 13010KT 10SM VCTS BKN024 24/19 A2985 RMK AO2 LTG DSNT N AND NE TSE1058B05E20 SLP087 T02390194 10261 20239 53006

Saat: 07:08 (12:08 UTC)


TAF: eksik

4.000'den fazla havaalanı için hava durumu gözlemleri ve tahminleri (METAR ve TAF raporları).

Kullanılabilir istasyonlar harita üzerinde sarı ve kırmızı noktalarla gösterilir.

İstasyonun adını görmek için fareyi noktanın üzerinde gezdirin.

Sonrasında hava gözlem ve tahminlerini görmek için tıklayın.

Haritayı değiştirmek için: yaklaştırmak için siyah artı işaretli yeşil düğmeye ve uzaklaştırmak için de eksi işaretli düğmeye hızla tıklayın; bitişik haritalar için yeşil okları kullanın.


METAR-TAF: